sensor_id;sensor_type;location;lat;lon;timestamp;temperature;humidity
20231;DHT22;10274;49.022;9.338;2022-12-29T00:02:19;10.90;99.90
20231;DHT22;10274;49.022;9.338;2022-12-29T00:04:46;10.90;99.90
20231;DHT22;10274;49.022;9.338;2022-12-29T00:07:14;11.00;99.90
20231;DHT22;10274;49.022;9.338;2022-12-29T00:09:41;11.00;99.90
20231;DHT22;10274;49.022;9.338;2022-12-29T00:12:07;10.90;99.90
20231;DHT22;10274;49.022;9.338;2022-12-29T00:14:34;10.90;99.90
20231;DHT22;10274;49.022;9.338;2022-12-29T00:17:19;11.00;99.90
20231;DHT22;10274;49.022;9.338;2022-12-29T00:19:45;11.00;99.90
20231;DHT22;10274;49.022;9.338;2022-12-29T00:22:31;11.00;99.90
20231;DHT22;10274;49.022;9.338;2022-12-29T00:25:15;11.00;99.90
20231;DHT22;10274;49.022;9.338;2022-12-29T00:28:02;11.00;99.90
20231;DHT22;10274;49.022;9.338;2022-12-29T00:30:46;11.10;99.90
20231;DHT22;10274;49.022;9.338;2022-12-29T00:33:31;11.10;99.90
20231;DHT22;10274;49.022;9.338;2022-12-29T00:36:18;11.30;54.30
20231;DHT22;10274;49.022;9.338;2022-12-29T00:38:50;11.30;25.00
20231;DHT22;10274;49.022;9.338;2022-12-29T00:41:35;11.30;1.00
20231;DHT22;10274;49.022;9.338;2022-12-29T00:44:19;11.40;1.00
20231;DHT22;10274;49.022;9.338;2022-12-29T00:46:46;11.30;4.70
20231;DHT22;10274;49.022;9.338;2022-12-29T00:49:13;11.40;1.00
20231;DHT22;10274;49.022;9.338;2022-12-29T00:51:59;11.30;9.10
20231;DHT22;10274;49.022;9.338;2022-12-29T00:54:28;11.40;1.00
20231;DHT22;10274;49.022;9.338;2022-12-29T00:56:55;11.40;1.00
20231;DHT22;10274;49.022;9.338;2022-12-29T00:59:22;11.50;1.00
20231;DHT22;10274;49.022;9.338;2022-12-29T01:01:50;11.50;1.00
20231;DHT22;10274;49.022;9.338;2022-12-29T01:04:17;11.50;1.00
20231;DHT22;10274;49.022;9.338;2022-12-29T01:06:44;11.50;1.00
20231;DHT22;10274;49.022;9.338;2022-12-29T01:09:11;11.50;1.00
20231;DHT22;10274;49.022;9.338;2022-12-29T01:11:57;11.50;1.00
20231;DHT22;10274;49.022;9.338;2022-12-29T01:14:24;11.50;1.00
20231;DHT22;10274;49.022;9.338;2022-12-29T01:16:51;11.60;1.00
20231;DHT22;10274;49.022;9.338;2022-12-29T01:19:18;11.50;1.00
20231;DHT22;10274;49.022;9.338;2022-12-29T01:21:45;11.60;1.00
20231;DHT22;10274;49.022;9.338;2022-12-29T01:24:13;11.60;1.00
20231;DHT22;10274;49.022;9.338;2022-12-29T01:26:39;11.70;1.00
20231;DHT22;10274;49.022;9.338;2022-12-29T01:29:07;11.60;1.00
20231;DHT22;10274;49.022;9.338;2022-12-29T01:31:34;11.90;1.00
20231;DHT22;10274;49.022;9.338;2022-12-29T01:34:01;12.20;1.00
20231;DHT22;10274;49.022;9.338;2022-12-29T01:36:28;12.00;1.00
20231;DHT22;10274;49.022;9.338;2022-12-29T01:38:55;12.00;1.00
20231;DHT22;10274;49.022;9.338;2022-12-29T01:41:23;11.90;1.00
20231;DHT22;10274;49.022;9.338;2022-12-29T01:43:51;11.80;1.00
20231;DHT22;10274;49.022;9.338;2022-12-29T01:46:26;11.80;1.00
20231;DHT22;10274;49.022;9.338;2022-12-29T01:48:57;11.60;1.00
20231;DHT22;10274;49.022;9.338;2022-12-29T01:51:25;11.60;1.00
20231;DHT22;10274;49.022;9.338;2022-12-29T01:53:54;11.70;1.00
20231;DHT22;10274;49.022;9.338;2022-12-29T01:56:24;11.60;1.00
20231;DHT22;10274;49.022;9.338;2022-12-29T01:58:56;11.30;99.90
20231;DHT22;10274;49.022;9.338;2022-12-29T02:01:25;11.10;99.90
20231;DHT22;10274;49.022;9.338;2022-12-29T02:03:52;11.10;99.90
20231;DHT22;10274;49.022;9.338;2022-12-29T02:06:21;11.00;99.90
20231;DHT22;10274;49.022;9.338;2022-12-29T02:08:50;11.00;99.90
20231;DHT22;10274;49.022;9.338;2022-12-29T02:11:19;10.90;99.90
20231;DHT22;10274;49.022;9.338;2022-12-29T02:13:47;10.80;99.90
20231;DHT22;10274;49.022;9.338;2022-12-29T02:16:29;11.10;99.90
20231;DHT22;10274;49.022;9.338;2022-12-29T02:19:18;11.20;99.90
20231;DHT22;10274;49.022;9.338;2022-12-29T02:22:00;11.20;99.90
20231;DHT22;10274;49.022;9.338;2022-12-29T02:24:44;11.30;96.40
20231;DHT22;10274;49.022;9.338;2022-12-29T02:30:16;11.30;51.20
20231;DHT22;10274;49.022;9.338;2022-12-29T02:35:23;11.20;85.80
20231;DHT22;10274;49.022;9.338;2022-12-29T02:37:58;11.10;79.70
20231;DHT22;10274;49.022;9.338;2022-12-29T02:40:33;11.20;99.90
20231;DHT22;10274;49.022;9.338;2022-12-29T02:43:09;11.30;31.00
20231;DHT22;10274;49.022;9.338;2022-12-29T02:45:43;11.20;51.00
20231;DHT22;10274;49.022;9.338;2022-12-29T02:48:19;11.20;50.80
20231;DHT22;10274;49.022;9.338;2022-12-29T02:50:52;11.20;52.00
20231;DHT22;10274;49.022;9.338;2022-12-29T02:53:23;11.30;29.10
20231;DHT22;10274;49.022;9.338;2022-12-29T02:56:05;11.20;26.30
20231;DHT22;10274;49.022;9.338;2022-12-29T02:58:32;11.20;24.10
20231;DHT22;10274;49.022;9.338;2022-12-29T03:01:19;11.20;32.90
20231;DHT22;10274;49.022;9.338;2022-12-29T03:03:56;11.20;30.90
20231;DHT22;10274;49.022;9.338;2022-12-29T03:06:33;11.20;32.80
20231;DHT22;10274;49.022;9.338;2022-12-29T03:09:09;11.20;14.00
20231;DHT22;10274;49.022;9.338;2022-12-29T03:11:45;11.10;65.50
20231;DHT22;10274;49.022;9.338;2022-12-29T03:14:35;11.10;96.30
20231;DHT22;10274;49.022;9.338;2022-12-29T03:17:25;11.20;66.30
20231;DHT22;10274;49.022;9.338;2022-12-29T03:19:59;11.30;66.30
20231;DHT22;10274;49.022;9.338;2022-12-29T03:22:32;11.30;58.20
20231;DHT22;10274;49.022;9.338;2022-12-29T03:25:01;11.30;71.30
20231;DHT22;10274;49.022;9.338;2022-12-29T03:27:31;11.30;19.00
20231;DHT22;10274;49.022;9.338;2022-12-29T03:30:04;11.30;47.70
20231;DHT22;10274;49.022;9.338;2022-12-29T03:32:33;11.30;71.80
20231;DHT22;10274;49.022;9.338;2022-12-29T03:35:00;11.40;57.60
20231;DHT22;10274;49.022;9.338;2022-12-29T03:37:31;11.40;61.00
20231;DHT22;10274;49.022;9.338;2022-12-29T03:40:00;11.60;12.80
20231;DHT22;10274;49.022;9.338;2022-12-29T03:42:30;11.90;1.00
20231;DHT22;10274;49.022;9.338;2022-12-29T03:44:58;11.80;1.00
20231;DHT22;10274;49.022;9.338;2022-12-29T03:47:25;12.00;1.00
20231;DHT22;10274;49.022;9.338;2022-12-29T03:49:52;12.20;1.00
20231;DHT22;10274;49.022;9.338;2022-12-29T03:52:19;12.40;1.00
20231;DHT22;10274;49.022;9.338;2022-12-29T03:54:47;12.50;1.00
20231;DHT22;10274;49.022;9.338;2022-12-29T03:57:14;12.80;1.00
20231;DHT22;10274;49.022;9.338;2022-12-29T03:59:40;12.90;1.00
20231;DHT22;10274;49.022;9.338;2022-12-29T04:02:07;12.80;1.00
20231;DHT22;10274;49.022;9.338;2022-12-29T04:04:34;12.80;1.00
20231;DHT22;10274;49.022;9.338;2022-12-29T04:07:00;12.70;1.00
20231;DHT22;10274;49.022;9.338;2022-12-29T04:09:27;12.70;1.00
20231;DHT22;10274;49.022;9.338;2022-12-29T04:11:56;12.70;1.00
20231;DHT22;10274;49.022;9.338;2022-12-29T04:14:23;12.60;1.00
20231;DHT22;10274;49.022;9.338;2022-12-29T04:16:49;12.40;1.00
20231;DHT22;10274;49.022;9.338;2022-12-29T04:19:16;12.80;1.00
20231;DHT22;10274;49.022;9.338;2022-12-29T04:21:43;12.50;1.00
20231;DHT22;10274;49.022;9.338;2022-12-29T04:24:08;12.40;1.00
20231;DHT22;10274;49.022;9.338;2022-12-29T04:26:35;12.40;1.00
20231;DHT22;10274;49.022;9.338;2022-12-29T04:29:03;12.60;1.00
20231;DHT22;10274;49.022;9.338;2022-12-29T04:31:30;12.60;1.00
20231;DHT22;10274;49.022;9.338;2022-12-29T04:33:57;12.60;1.00
20231;DHT22;10274;49.022;9.338;2022-12-29T04:36:25;12.60;1.00
20231;DHT22;10274;49.022;9.338;2022-12-29T04:38:51;12.50;1.00
20231;DHT22;10274;49.022;9.338;2022-12-29T04:41:18;12.70;1.00
20231;DHT22;10274;49.022;9.338;2022-12-29T04:43:45;12.70;1.00
20231;DHT22;10274;49.022;9.338;2022-12-29T04:46:13;12.80;1.00
20231;DHT22;10274;49.022;9.338;2022-12-29T04:48:39;12.70;1.00
20231;DHT22;10274;49.022;9.338;2022-12-29T04:51:06;12.50;1.00
20231;DHT22;10274;49.022;9.338;2022-12-29T04:53:33;12.60;1.00
20231;DHT22;10274;49.022;9.338;2022-12-29T04:55:59;12.70;1.00
20231;DHT22;10274;49.022;9.338;2022-12-29T04:58:26;12.70;1.00
20231;DHT22;10274;49.022;9.338;2022-12-29T05:00:53;12.70;1.00
20231;DHT22;10274;49.022;9.338;2022-12-29T05:03:21;12.70;1.00
20231;DHT22;10274;49.022;9.338;2022-12-29T05:05:47;12.60;1.00
20231;DHT22;10274;49.022;9.338;2022-12-29T05:08:14;12.50;1.00
20231;DHT22;10274;49.022;9.338;2022-12-29T05:10:44;12.60;1.00
20231;DHT22;10274;49.022;9.338;2022-12-29T05:13:11;12.60;1.00
20231;DHT22;10274;49.022;9.338;2022-12-29T05:15:37;12.60;1.00
20231;DHT22;10274;49.022;9.338;2022-12-29T05:18:04;12.60;1.00
20231;DHT22;10274;49.022;9.338;2022-12-29T05:20:32;12.70;1.00
20231;DHT22;10274;49.022;9.338;2022-12-29T05:22:59;12.50;1.00
20231;DHT22;10274;49.022;9.338;2022-12-29T05:25:25;12.50;1.00
20231;DHT22;10274;49.022;9.338;2022-12-29T05:27:52;12.40;1.00
20231;DHT22;10274;49.022;9.338;2022-12-29T05:30:19;12.30;1.00
20231;DHT22;10274;49.022;9.338;2022-12-29T05:32:45;12.40;1.00
20231;DHT22;10274;49.022;9.338;2022-12-29T05:35:12;12.40;1.00
20231;DHT22;10274;49.022;9.338;2022-12-29T05:37:40;12.50;1.00
20231;DHT22;10274;49.022;9.338;2022-12-29T05:40:08;12.40;1.00
20231;DHT22;10274;49.022;9.338;2022-12-29T05:42:34;12.50;1.00
20231;DHT22;10274;49.022;9.338;2022-12-29T05:45:01;12.50;1.00
20231;DHT22;10274;49.022;9.338;2022-12-29T05:47:28;12.60;1.00
20231;DHT22;10274;49.022;9.338;2022-12-29T05:49:54;12.70;1.00
20231;DHT22;10274;49.022;9.338;2022-12-29T05:52:21;12.70;1.00
20231;DHT22;10274;49.022;9.338;2022-12-29T05:54:49;12.60;1.00
20231;DHT22;10274;49.022;9.338;2022-12-29T05:57:16;12.60;1.00
20231;DHT22;10274;49.022;9.338;2022-12-29T05:59:42;12.50;1.00
20231;DHT22;10274;49.022;9.338;2022-12-29T06:02:09;12.80;1.00
20231;DHT22;10274;49.022;9.338;2022-12-29T06:04:36;12.70;1.00
20231;DHT22;10274;49.022;9.338;2022-12-29T06:07:02;12.80;1.00
20231;DHT22;10274;49.022;9.338;2022-12-29T06:09:29;12.80;1.00
20231;DHT22;10274;49.022;9.338;2022-12-29T06:11:57;12.80;1.00
20231;DHT22;10274;49.022;9.338;2022-12-29T06:14:24;12.80;1.00
20231;DHT22;10274;49.022;9.338;2022-12-29T06:16:50;12.80;1.00
20231;DHT22;10274;49.022;9.338;2022-12-29T06:19:17;12.70;1.00
20231;DHT22;10274;49.022;9.338;2022-12-29T06:21:44;12.80;1.00
20231;DHT22;10274;49.022;9.338;2022-12-29T06:24:10;12.80;1.00
20231;DHT22;10274;49.022;9.338;2022-12-29T06:26:37;12.80;1.00
20231;DHT22;10274;49.022;9.338;2022-12-29T06:29:08;12.70;1.00
20231;DHT22;10274;49.022;9.338;2022-12-29T06:31:34;12.70;1.00
20231;DHT22;10274;49.022;9.338;2022-12-29T06:34:01;12.70;1.00
20231;DHT22;10274;49.022;9.338;2022-12-29T06:36:28;12.70;1.00
20231;DHT22;10274;49.022;9.338;2022-12-29T06:38:54;12.70;1.00
20231;DHT22;10274;49.022;9.338;2022-12-29T06:41:21;12.60;1.00
20231;DHT22;10274;49.022;9.338;2022-12-29T06:43:48;12.70;1.00
20231;DHT22;10274;49.022;9.338;2022-12-29T06:46:16;12.60;1.00
20231;DHT22;10274;49.022;9.338;2022-12-29T06:48:42;12.60;1.00
20231;DHT22;10274;49.022;9.338;2022-12-29T06:51:09;12.60;1.00
20231;DHT22;10274;49.022;9.338;2022-12-29T06:53:36;12.50;1.00
20231;DHT22;10274;49.022;9.338;2022-12-29T06:56:03;12.50;1.00
20231;DHT22;10274;49.022;9.338;2022-12-29T06:58:29;12.60;1.00
20231;DHT22;10274;49.022;9.338;2022-12-29T07:00:56;12.40;1.00
20231;DHT22;10274;49.022;9.338;2022-12-29T07:03:24;12.60;1.00
20231;DHT22;10274;49.022;9.338;2022-12-29T07:05:51;12.50;1.00
20231;DHT22;10274;49.022;9.338;2022-12-29T07:08:19;12.50;1.00
20231;DHT22;10274;49.022;9.338;2022-12-29T07:10:46;12.40;1.00
20231;DHT22;10274;49.022;9.338;2022-12-29T07:13:13;12.40;1.00
20231;DHT22;10274;49.022;9.338;2022-12-29T07:15:39;12.40;1.00
20231;DHT22;10274;49.022;9.338;2022-12-29T07:18:06;12.40;1.00
20231;DHT22;10274;49.022;9.338;2022-12-29T07:20:34;12.40;1.00
20231;DHT22;10274;49.022;9.338;2022-12-29T07:23:02;12.40;1.00
20231;DHT22;10274;49.022;9.338;2022-12-29T07:25:29;12.30;1.00
20231;DHT22;10274;49.022;9.338;2022-12-29T07:27:55;12.30;1.00
20231;DHT22;10274;49.022;9.338;2022-12-29T07:30:22;12.30;22.70
20231;DHT22;10274;49.022;9.338;2022-12-29T07:32:49;12.20;19.10
20231;DHT22;10274;49.022;9.338;2022-12-29T07:35:16;12.20;23.00
20231;DHT22;10274;49.022;9.338;2022-12-29T07:37:43;12.20;23.30
20231;DHT22;10274;49.022;9.338;2022-12-29T07:40:11;12.00;40.30
20231;DHT22;10274;49.022;9.338;2022-12-29T07:42:38;12.10;39.80
20231;DHT22;10274;49.022;9.338;2022-12-29T07:45:05;12.00;38.40
20231;DHT22;10274;49.022;9.338;2022-12-29T07:47:32;12.10;7.30
20231;DHT22;10274;49.022;9.338;2022-12-29T07:49:59;12.00;1.00
20231;DHT22;10274;49.022;9.338;2022-12-29T07:52:26;12.00;4.60
20231;DHT22;10274;49.022;9.338;2022-12-29T07:54:54;11.90;9.30
20231;DHT22;10274;49.022;9.338;2022-12-29T07:57:20;11.80;1.00
20231;DHT22;10274;49.022;9.338;2022-12-29T07:59:47;11.90;1.00
20231;DHT22;10274;49.022;9.338;2022-12-29T08:02:14;12.00;1.00
20231;DHT22;10274;49.022;9.338;2022-12-29T08:04:40;12.00;1.00
20231;DHT22;10274;49.022;9.338;2022-12-29T08:07:07;11.90;1.00
20231;DHT22;10274;49.022;9.338;2022-12-29T08:09:34;11.90;1.00
20231;DHT22;10274;49.022;9.338;2022-12-29T08:12:02;11.90;1.00
20231;DHT22;10274;49.022;9.338;2022-12-29T08:14:28;12.00;1.00
20231;DHT22;10274;49.022;9.338;2022-12-29T08:16:55;12.00;1.00
20231;DHT22;10274;49.022;9.338;2022-12-29T08:19:22;12.00;1.00
20231;DHT22;10274;49.022;9.338;2022-12-29T08:21:48;11.90;1.00
20231;DHT22;10274;49.022;9.338;2022-12-29T08:24:15;12.00;1.00
20231;DHT22;10274;49.022;9.338;2022-12-29T08:26:41;12.00;1.00
20231;DHT22;10274;49.022;9.338;2022-12-29T08:29:09;12.00;1.00
20231;DHT22;10274;49.022;9.338;2022-12-29T08:31:36;12.00;1.00
20231;DHT22;10274;49.022;9.338;2022-12-29T08:34:03;12.10;1.00
20231;DHT22;10274;49.022;9.338;2022-12-29T08:36:31;12.10;1.00
20231;DHT22;10274;49.022;9.338;2022-12-29T08:38:58;12.20;1.00
20231;DHT22;10274;49.022;9.338;2022-12-29T08:41:24;12.20;1.00
20231;DHT22;10274;49.022;9.338;2022-12-29T08:43:51;12.20;1.00
20231;DHT22;10274;49.022;9.338;2022-12-29T08:46:19;12.20;1.00
20231;DHT22;10274;49.022;9.338;2022-12-29T08:48:46;12.20;1.00
20231;DHT22;10274;49.022;9.338;2022-12-29T08:51:13;12.20;1.00
20231;DHT22;10274;49.022;9.338;2022-12-29T08:53:39;12.20;1.00
20231;DHT22;10274;49.022;9.338;2022-12-29T08:56:08;12.30;1.00
20231;DHT22;10274;49.022;9.338;2022-12-29T08:58:35;12.30;1.00
20231;DHT22;10274;49.022;9.338;2022-12-29T09:01:02;12.30;1.00
20231;DHT22;10274;49.022;9.338;2022-12-29T09:03:30;12.30;1.00
20231;DHT22;10274;49.022;9.338;2022-12-29T09:05:57;12.30;1.00
20231;DHT22;10274;49.022;9.338;2022-12-29T09:08:23;12.40;1.00
20231;DHT22;10274;49.022;9.338;2022-12-29T09:10:50;12.40;1.00
20231;DHT22;10274;49.022;9.338;2022-12-29T09:13:17;12.40;1.00
20231;DHT22;10274;49.022;9.338;2022-12-29T09:15:44;12.50;1.00
20231;DHT22;10274;49.022;9.338;2022-12-29T09:18:11;12.50;1.00
20231;DHT22;10274;49.022;9.338;2022-12-29T09:20:39;12.50;1.00
20231;DHT22;10274;49.022;9.338;2022-12-29T09:23:06;12.50;1.00
20231;DHT22;10274;49.022;9.338;2022-12-29T09:25:33;12.60;1.00
20231;DHT22;10274;49.022;9.338;2022-12-29T09:28:00;12.60;1.00
20231;DHT22;10274;49.022;9.338;2022-12-29T09:30:29;12.60;1.00
20231;DHT22;10274;49.022;9.338;2022-12-29T09:32:56;12.60;1.00
20231;DHT22;10274;49.022;9.338;2022-12-29T09:35:22;12.70;1.00
20231;DHT22;10274;49.022;9.338;2022-12-29T09:37:50;12.70;1.00
20231;DHT22;10274;49.022;9.338;2022-12-29T09:40:25;12.70;1.00
20231;DHT22;10274;49.022;9.338;2022-12-29T09:43:05;12.90;1.00
20231;DHT22;10274;49.022;9.338;2022-12-29T09:45:40;12.90;1.00
20231;DHT22;10274;49.022;9.338;2022-12-29T09:48:14;12.90;1.00
20231;DHT22;10274;49.022;9.338;2022-12-29T09:50:45;12.90;1.00
20231;DHT22;10274;49.022;9.338;2022-12-29T09:53:19;12.90;1.00
20231;DHT22;10274;49.022;9.338;2022-12-29T09:55:49;13.00;1.00
20231;DHT22;10274;49.022;9.338;2022-12-29T09:58:21;12.90;1.00
20231;DHT22;10274;49.022;9.338;2022-12-29T10:00:56;12.90;1.00
20231;DHT22;10274;49.022;9.338;2022-12-29T10:03:26;12.90;1.00
20231;DHT22;10274;49.022;9.338;2022-12-29T10:05:58;13.00;1.00
20231;DHT22;10274;49.022;9.338;2022-12-29T10:08:34;12.90;1.00
20231;DHT22;10274;49.022;9.338;2022-12-29T10:11:09;12.90;1.00
20231;DHT22;10274;49.022;9.338;2022-12-29T10:13:52;12.90;1.00
20231;DHT22;10274;49.022;9.338;2022-12-29T10:16:28;13.00;1.00
20231;DHT22;10274;49.022;9.338;2022-12-29T10:19:13;12.90;1.00
20231;DHT22;10274;49.022;9.338;2022-12-29T10:21:53;13.00;1.00
20231;DHT22;10274;49.022;9.338;2022-12-29T10:24:26;13.10;1.00
20231;DHT22;10274;49.022;9.338;2022-12-29T10:26:56;13.30;1.00
20231;DHT22;10274;49.022;9.338;2022-12-29T10:29:27;13.50;1.00
20231;DHT22;10274;49.022;9.338;2022-12-29T10:32:00;13.50;1.00
20231;DHT22;10274;49.022;9.338;2022-12-29T10:34:31;13.50;1.00
20231;DHT22;10274;49.022;9.338;2022-12-29T10:37:02;13.60;1.00
20231;DHT22;10274;49.022;9.338;2022-12-29T10:39:37;13.60;1.00
20231;DHT22;10274;49.022;9.338;2022-12-29T10:42:15;13.60;1.00
20231;DHT22;10274;49.022;9.338;2022-12-29T10:44:44;13.50;1.00
20231;DHT22;10274;49.022;9.338;2022-12-29T10:47:14;13.50;1.00
20231;DHT22;10274;49.022;9.338;2022-12-29T10:49:45;13.50;1.00
20231;DHT22;10274;49.022;9.338;2022-12-29T10:52:15;13.50;1.00
20231;DHT22;10274;49.022;9.338;2022-12-29T10:54:46;13.50;1.00
20231;DHT22;10274;49.022;9.338;2022-12-29T10:57:21;13.50;1.00
20231;DHT22;10274;49.022;9.338;2022-12-29T10:59:50;13.50;1.00
20231;DHT22;10274;49.022;9.338;2022-12-29T11:02:39;13.50;1.00
20231;DHT22;10274;49.022;9.338;2022-12-29T11:05:14;13.50;1.00
20231;DHT22;10274;49.022;9.338;2022-12-29T11:07:43;13.50;1.00
20231;DHT22;10274;49.022;9.338;2022-12-29T11:10:19;13.50;1.00
20231;DHT22;10274;49.022;9.338;2022-12-29T11:12:57;13.70;1.00
20231;DHT22;10274;49.022;9.338;2022-12-29T11:15:24;13.80;1.00
20231;DHT22;10274;49.022;9.338;2022-12-29T11:17:52;13.70;1.00
20231;DHT22;10274;49.022;9.338;2022-12-29T11:20:28;13.70;1.00
20231;DHT22;10274;49.022;9.338;2022-12-29T11:22:55;13.70;1.00
20231;DHT22;10274;49.022;9.338;2022-12-29T11:25:23;13.60;1.00
20231;DHT22;10274;49.022;9.338;2022-12-29T11:28:00;13.60;12.90
20231;DHT22;10274;49.022;9.338;2022-12-29T11:30:30;13.50;8.50
20231;DHT22;10274;49.022;9.338;2022-12-29T11:32:57;13.60;1.00
20231;DHT22;10274;49.022;9.338;2022-12-29T11:35:33;13.60;1.00
20231;DHT22;10274;49.022;9.338;2022-12-29T11:38:02;13.70;1.00
20231;DHT22;10274;49.022;9.338;2022-12-29T11:40:30;13.60;1.00
20231;DHT22;10274;49.022;9.338;2022-12-29T11:43:00;13.60;1.00
20231;DHT22;10274;49.022;9.338;2022-12-29T11:45:31;13.50;1.00
20231;DHT22;10274;49.022;9.338;2022-12-29T11:48:05;13.50;1.00
20231;DHT22;10274;49.022;9.338;2022-12-29T11:50:36;13.50;1.00
20231;DHT22;10274;49.022;9.338;2022-12-29T11:53:06;13.50;1.00
20231;DHT22;10274;49.022;9.338;2022-12-29T11:55:37;13.50;1.00
20231;DHT22;10274;49.022;9.338;2022-12-29T11:58:04;13.50;1.00
20231;DHT22;10274;49.022;9.338;2022-12-29T12:00:34;13.40;1.00
20231;DHT22;10274;49.022;9.338;2022-12-29T12:03:05;13.30;24.50
20231;DHT22;10274;49.022;9.338;2022-12-29T12:05:39;13.30;52.00
20231;DHT22;10274;49.022;9.338;2022-12-29T12:08:11;13.30;68.70
20231;DHT22;10274;49.022;9.338;2022-12-29T12:10:44;13.20;99.90
20231;DHT22;10274;49.022;9.338;2022-12-29T12:13:18;13.20;99.90
20231;DHT22;10274;49.022;9.338;2022-12-29T12:15:50;13.30;58.60
20231;DHT22;10274;49.022;9.338;2022-12-29T12:18:24;13.30;99.90
20231;DHT22;10274;49.022;9.338;2022-12-29T12:20:56;13.20;99.90
20231;DHT22;10274;49.022;9.338;2022-12-29T12:23:30;13.20;99.90
20231;DHT22;10274;49.022;9.338;2022-12-29T12:26:09;13.30;54.60
20231;DHT22;10274;49.022;9.338;2022-12-29T12:28:42;13.30;24.60
20231;DHT22;10274;49.022;9.338;2022-12-29T12:31:17;13.40;1.00
20231;DHT22;10274;49.022;9.338;2022-12-29T12:33:46;13.40;1.00
20231;DHT22;10274;49.022;9.338;2022-12-29T12:36:28;13.50;1.00
20231;DHT22;10274;49.022;9.338;2022-12-29T12:39:02;13.60;1.00
20231;DHT22;10274;49.022;9.338;2022-12-29T12:41:41;13.60;1.00
20231;DHT22;10274;49.022;9.338;2022-12-29T12:44:15;13.60;1.00
20231;DHT22;10274;49.022;9.338;2022-12-29T12:50:15;13.50;1.00
20231;DHT22;10274;49.022;9.338;2022-12-29T12:53:05;13.40;1.00
20231;DHT22;10274;49.022;9.338;2022-12-29T12:55:49;13.40;1.00
20231;DHT22;10274;49.022;9.338;2022-12-29T12:58:27;13.40;1.00
20231;DHT22;10274;49.022;9.338;2022-12-29T13:01:05;13.40;1.00
20231;DHT22;10274;49.022;9.338;2022-12-29T13:03:52;13.30;1.00
20231;DHT22;10274;49.022;9.338;2022-12-29T13:06:30;13.30;1.00
20231;DHT22;10274;49.022;9.338;2022-12-29T13:09:12;13.30;1.00
20231;DHT22;10274;49.022;9.338;2022-12-29T13:11:51;13.20;18.90
20231;DHT22;10274;49.022;9.338;2022-12-29T13:14:34;13.20;34.40
20231;DHT22;10274;49.022;9.338;2022-12-29T13:17:09;13.10;95.30
20231;DHT22;10274;49.022;9.338;2022-12-29T13:19:41;13.20;91.00
20231;DHT22;10274;49.022;9.338;2022-12-29T13:22:18;13.10;98.40
20231;DHT22;10274;49.022;9.338;2022-12-29T13:24:54;13.20;90.30
20231;DHT22;10274;49.022;9.338;2022-12-29T13:27:32;13.10;99.90
20231;DHT22;10274;49.022;9.338;2022-12-29T13:30:05;13.10;99.90
20231;DHT22;10274;49.022;9.338;2022-12-29T13:32:43;13.10;99.90
20231;DHT22;10274;49.022;9.338;2022-12-29T13:35:24;13.10;99.90
20231;DHT22;10274;49.022;9.338;2022-12-29T13:38:00;13.20;59.40
20231;DHT22;10274;49.022;9.338;2022-12-29T13:40:34;13.30;57.60
20231;DHT22;10274;49.022;9.338;2022-12-29T13:43:05;13.20;63.90
20231;DHT22;10274;49.022;9.338;2022-12-29T13:45:34;13.10;99.90
20231;DHT22;10274;49.022;9.338;2022-12-29T13:48:05;13.10;99.90
20231;DHT22;10274;49.022;9.338;2022-12-29T13:50:36;13.10;99.90
20231;DHT22;10274;49.022;9.338;2022-12-29T13:53:11;13.10;99.90
20231;DHT22;10274;49.022;9.338;2022-12-29T13:55:45;13.00;99.90
20231;DHT22;10274;49.022;9.338;2022-12-29T13:58:21;13.00;99.90
20231;DHT22;10274;49.022;9.338;2022-12-29T14:00:57;13.00;1.00
20231;DHT22;10274;49.022;9.338;2022-12-29T14:03:47;13.00;1.00
20231;DHT22;10274;49.022;9.338;2022-12-29T14:06:19;12.90;1.00
20231;DHT22;10274;49.022;9.338;2022-12-29T14:08:46;12.80;1.00
20231;DHT22;10274;49.022;9.338;2022-12-29T14:11:15;12.80;99.90
20231;DHT22;10274;49.022;9.338;2022-12-29T14:13:45;12.90;1.00
20231;DHT22;10274;49.022;9.338;2022-12-29T14:16:34;12.80;70.80
20231;DHT22;10274;49.022;9.338;2022-12-29T14:19:09;12.70;1.00
20231;DHT22;10274;49.022;9.338;2022-12-29T14:21:39;12.70;1.00
20231;DHT22;10274;49.022;9.338;2022-12-29T14:24:32;12.70;1.00
20231;DHT22;10274;49.022;9.338;2022-12-29T14:27:42;12.70;99.90
20231;DHT22;10274;49.022;9.338;2022-12-29T14:33:27;12.80;1.00
20231;DHT22;10274;49.022;9.338;2022-12-29T14:38:27;12.80;1.00
20231;DHT22;10274;49.022;9.338;2022-12-29T14:41:15;12.70;1.00
20231;DHT22;10274;49.022;9.338;2022-12-29T14:43:52;12.70;1.00
20231;DHT22;10274;49.022;9.338;2022-12-29T14:46:19;12.70;1.00
20231;DHT22;10274;49.022;9.338;2022-12-29T14:48:47;12.60;99.90
20231;DHT22;10274;49.022;9.338;2022-12-29T14:51:29;12.60;99.90
20231;DHT22;10274;49.022;9.338;2022-12-29T14:53:57;12.60;99.90
20231;DHT22;10274;49.022;9.338;2022-12-29T14:56:28;12.50;1.00
20231;DHT22;10274;49.022;9.338;2022-12-29T14:58:58;12.50;1.00
20231;DHT22;10274;49.022;9.338;2022-12-29T15:01:36;12.30;99.90
20231;DHT22;10274;49.022;9.338;2022-12-29T15:04:15;12.30;1.00
20231;DHT22;10274;49.022;9.338;2022-12-29T15:06:43;12.30;99.90
20231;DHT22;10274;49.022;9.338;2022-12-29T15:09:20;12.30;99.90
20231;DHT22;10274;49.022;9.338;2022-12-29T15:11:51;12.30;1.00
20231;DHT22;10274;49.022;9.338;2022-12-29T15:14:30;12.20;99.90
20231;DHT22;10274;49.022;9.338;2022-12-29T15:16:57;11.90;99.90
20231;DHT22;10274;49.022;9.338;2022-12-29T15:19:27;11.90;99.90
20231;DHT22;10274;49.022;9.338;2022-12-29T15:21:54;11.70;1.00
20231;DHT22;10274;49.022;9.338;2022-12-29T15:24:22;11.70;1.00
20231;DHT22;10274;49.022;9.338;2022-12-29T15:26:51;11.70;1.00
20231;DHT22;10274;49.022;9.338;2022-12-29T15:29:35;11.70;1.00
20231;DHT22;10274;49.022;9.338;2022-12-29T15:32:16;11.70;1.00
20231;DHT22;10274;49.022;9.338;2022-12-29T15:34:46;11.60;1.00
20231;DHT22;10274;49.022;9.338;2022-12-29T15:37:18;11.40;1.00
20231;DHT22;10274;49.022;9.338;2022-12-29T15:39:45;11.30;1.00
20231;DHT22;10274;49.022;9.338;2022-12-29T15:42:28;11.10;1.00
20231;DHT22;10274;49.022;9.338;2022-12-29T15:44:56;10.90;1.00
20231;DHT22;10274;49.022;9.338;2022-12-29T15:47:25;10.70;33.80
20231;DHT22;10274;49.022;9.338;2022-12-29T15:50:00;10.50;90.80
20231;DHT22;10274;49.022;9.338;2022-12-29T15:52:29;10.30;99.00
20231;DHT22;10274;49.022;9.338;2022-12-29T15:54:58;10.20;99.90
20231;DHT22;10274;49.022;9.338;2022-12-29T15:57:27;10.10;99.90
20231;DHT22;10274;49.022;9.338;2022-12-29T15:59:54;10.00;99.90
20231;DHT22;10274;49.022;9.338;2022-12-29T16:02:21;10.00;99.90
20231;DHT22;10274;49.022;9.338;2022-12-29T16:04:48;9.90;99.90
20231;DHT22;10274;49.022;9.338;2022-12-29T16:07:28;9.90;99.90
20231;DHT22;10274;49.022;9.338;2022-12-29T16:09:57;9.90;99.90
20231;DHT22;10274;49.022;9.338;2022-12-29T16:12:26;9.90;99.90
20231;DHT22;10274;49.022;9.338;2022-12-29T16:14:55;9.90;99.90
20231;DHT22;10274;49.022;9.338;2022-12-29T16:17:25;9.80;99.90
20231;DHT22;10274;49.022;9.338;2022-12-29T16:19:54;9.90;99.90
20231;DHT22;10274;49.022;9.338;2022-12-29T16:22:29;9.80;99.90